sensor_id;sensor_type;location;lat;lon;timestamp;P1;durP1;ratioP1;P2;durP2;ratioP2
65071;SDS011;51663;52.310;17.016;2022-07-29T00:02:41;6.72;;;2.88;;
65071;SDS011;51663;52.310;17.016;2022-07-29T00:05:44;7.47;;;3.30;;
65071;SDS011;51663;52.310;17.016;2022-07-29T00:08:46;5.00;;;2.90;;
65071;SDS011;51663;52.310;17.016;2022-07-29T00:11:48;9.07;;;3.90;;
65071;SDS011;51663;52.310;17.016;2022-07-29T00:14:50;6.75;;;2.70;;
65071;SDS011;51663;52.310;17.016;2022-07-29T00:17:53;8.10;;;3.35;;
65071;SDS011;51663;52.310;17.016;2022-07-29T00:20:55;7.00;;;3.23;;
65071;SDS011;51663;52.310;17.016;2022-07-29T00:23:57;6.77;;;3.20;;
65071;SDS011;51663;52.310;17.016;2022-07-29T00:26:59;6.47;;;2.87;;
65071;SDS011;51663;52.310;17.016;2022-07-29T00:30:02;5.90;;;3.47;;
65071;SDS011;51663;52.310;17.016;2022-07-29T00:33:05;8.93;;;3.25;;
65071;SDS011;51663;52.310;17.016;2022-07-29T00:36:09;7.37;;;3.27;;
65071;SDS011;51663;52.310;17.016;2022-07-29T00:39:11;7.53;;;3.50;;
65071;SDS011;51663;52.310;17.016;2022-07-29T00:42:14;7.93;;;3.90;;
65071;SDS011;51663;52.310;17.016;2022-07-29T00:45:16;9.38;;;3.28;;
65071;SDS011;51663;52.310;17.016;2022-07-29T00:48:18;8.63;;;3.63;;
65071;SDS011;51663;52.310;17.016;2022-07-29T00:51:20;6.20;;;3.47;;
65071;SDS011;51663;52.310;17.016;2022-07-29T00:54:22;9.05;;;4.47;;
65071;SDS011;51663;52.310;17.016;2022-07-29T00:57:25;7.00;;;3.70;;
65071;SDS011;51663;52.310;17.016;2022-07-29T01:00:27;8.48;;;3.40;;
65071;SDS011;51663;52.310;17.016;2022-07-29T01:03:30;6.53;;;2.97;;
65071;SDS011;51663;52.310;17.016;2022-07-29T01:06:33;7.13;;;3.30;;
65071;SDS011;51663;52.310;17.016;2022-07-29T01:09:35;7.05;;;3.22;;
65071;SDS011;51663;52.310;17.016;2022-07-29T01:12:48;15.10;;;3.90;;
65071;SDS011;51663;52.310;17.016;2022-07-29T01:15:54;9.83;;;3.77;;
65071;SDS011;51663;52.310;17.016;2022-07-29T01:19:08;11.23;;;4.20;;
65071;SDS011;51663;52.310;17.016;2022-07-29T01:22:28;5.00;;;3.70;;
65071;SDS011;51663;52.310;17.016;2022-07-29T01:25:46;6.93;;;3.77;;
65071;SDS011;51663;52.310;17.016;2022-07-29T01:32:14;5.87;;;4.10;;
65071;SDS011;51663;52.310;17.016;2022-07-29T01:35:39;5.18;;;3.80;;
65071;SDS011;51663;52.310;17.016;2022-07-29T01:38:44;7.37;;;4.30;;
65071;SDS011;51663;52.310;17.016;2022-07-29T01:45:48;10.07;;;4.20;;
65071;SDS011;51663;52.310;17.016;2022-07-29T01:48:57;12.07;;;3.87;;
65071;SDS011;51663;52.310;17.016;2022-07-29T01:52:31;7.33;;;3.67;;
65071;SDS011;51663;52.310;17.016;2022-07-29T01:55:42;7.95;;;4.68;;
65071;SDS011;51663;52.310;17.016;2022-07-29T01:58:47;5.07;;;3.90;;
65071;SDS011;51663;52.310;17.016;2022-07-29T02:01:53;7.83;;;4.00;;
65071;SDS011;51663;52.310;17.016;2022-07-29T02:04:58;11.03;;;4.27;;
65071;SDS011;51663;52.310;17.016;2022-07-29T02:08:03;12.93;;;4.60;;
65071;SDS011;51663;52.310;17.016;2022-07-29T02:11:06;8.40;;;4.13;;
65071;SDS011;51663;52.310;17.016;2022-07-29T02:14:10;8.13;;;3.65;;
65071;SDS011;51663;52.310;17.016;2022-07-29T02:17:19;9.82;;;5.35;;
65071;SDS011;51663;52.310;17.016;2022-07-29T02:20:25;6.57;;;4.27;;
65071;SDS011;51663;52.310;17.016;2022-07-29T02:23:28;7.18;;;4.05;;
65071;SDS011;51663;52.310;17.016;2022-07-29T02:26:52;8.33;;;4.40;;
65071;SDS011;51663;52.310;17.016;2022-07-29T02:29:57;13.40;;;4.10;;
65071;SDS011;51663;52.310;17.016;2022-07-29T02:33:01;5.87;;;4.23;;
65071;SDS011;51663;52.310;17.016;2022-07-29T02:36:05;7.03;;;3.73;;
65071;SDS011;51663;52.310;17.016;2022-07-29T02:39:07;7.83;;;4.13;;
65071;SDS011;51663;52.310;17.016;2022-07-29T02:42:12;10.47;;;4.47;;
65071;SDS011;51663;52.310;17.016;2022-07-29T02:45:17;9.00;;;4.40;;
65071;SDS011;51663;52.310;17.016;2022-07-29T02:48:19;7.50;;;4.20;;
65071;SDS011;51663;52.310;17.016;2022-07-29T02:51:31;12.97;;;5.07;;
65071;SDS011;51663;52.310;17.016;2022-07-29T02:54:52;8.85;;;4.60;;
65071;SDS011;51663;52.310;17.016;2022-07-29T02:58:31;9.43;;;4.20;;
65071;SDS011;51663;52.310;17.016;2022-07-29T03:01:42;6.20;;;3.87;;
65071;SDS011;51663;52.310;17.016;2022-07-29T03:04:45;8.83;;;4.00;;
65071;SDS011;51663;52.310;17.016;2022-07-29T03:07:52;5.20;;;3.13;;
65071;SDS011;51663;52.310;17.016;2022-07-29T03:11:05;6.97;;;4.03;;
65071;SDS011;51663;52.310;17.016;2022-07-29T03:14:09;7.87;;;3.70;;
65071;SDS011;51663;52.310;17.016;2022-07-29T03:17:13;9.87;;;4.20;;
65071;SDS011;51663;52.310;17.016;2022-07-29T03:20:16;4.07;;;3.37;;
65071;SDS011;51663;52.310;17.016;2022-07-29T03:23:19;4.67;;;4.20;;
65071;SDS011;51663;52.310;17.016;2022-07-29T03:26:24;7.43;;;4.53;;
65071;SDS011;51663;52.310;17.016;2022-07-29T03:29:26;8.43;;;3.90;;
65071;SDS011;51663;52.310;17.016;2022-07-29T03:32:35;7.53;;;3.93;;
65071;SDS011;51663;52.310;17.016;2022-07-29T03:35:38;7.47;;;4.30;;
65071;SDS011;51663;52.310;17.016;2022-07-29T03:38:40;5.47;;;3.30;;
65071;SDS011;51663;52.310;17.016;2022-07-29T03:41:46;4.97;;;3.60;;
65071;SDS011;51663;52.310;17.016;2022-07-29T03:44:51;5.47;;;4.20;;
65071;SDS011;51663;52.310;17.016;2022-07-29T03:47:59;7.83;;;4.00;;
65071;SDS011;51663;52.310;17.016;2022-07-29T03:51:07;4.47;;;3.60;;
65071;SDS011;51663;52.310;17.016;2022-07-29T03:54:09;7.80;;;3.00;;
65071;SDS011;51663;52.310;17.016;2022-07-29T03:57:12;6.03;;;3.58;;
65071;SDS011;51663;52.310;17.016;2022-07-29T04:00:15;5.87;;;3.67;;
65071;SDS011;51663;52.310;17.016;2022-07-29T04:03:18;8.33;;;3.87;;
65071;SDS011;51663;52.310;17.016;2022-07-29T04:06:20;8.65;;;3.58;;
65071;SDS011;51663;52.310;17.016;2022-07-29T04:09:23;8.05;;;3.53;;
65071;SDS011;51663;52.310;17.016;2022-07-29T04:12:25;4.47;;;3.05;;
65071;SDS011;51663;52.310;17.016;2022-07-29T04:15:27;4.68;;;3.30;;
65071;SDS011;51663;52.310;17.016;2022-07-29T04:18:32;4.53;;;3.20;;
65071;SDS011;51663;52.310;17.016;2022-07-29T04:21:40;8.80;;;4.07;;
65071;SDS011;51663;52.310;17.016;2022-07-29T04:24:42;6.60;;;3.25;;
65071;SDS011;51663;52.310;17.016;2022-07-29T04:27:45;6.55;;;3.58;;
65071;SDS011;51663;52.310;17.016;2022-07-29T04:31:02;6.90;;;3.47;;
65071;SDS011;51663;52.310;17.016;2022-07-29T04:34:04;5.32;;;3.25;;
65071;SDS011;51663;52.310;17.016;2022-07-29T04:37:06;11.90;;;3.53;;
65071;SDS011;51663;52.310;17.016;2022-07-29T04:40:08;6.55;;;3.58;;
65071;SDS011;51663;52.310;17.016;2022-07-29T04:43:11;8.38;;;3.35;;
65071;SDS011;51663;52.310;17.016;2022-07-29T04:46:14;4.22;;;2.72;;
65071;SDS011;51663;52.310;17.016;2022-07-29T04:49:17;5.82;;;3.38;;
65071;SDS011;51663;52.310;17.016;2022-07-29T04:52:19;3.80;;;3.00;;
65071;SDS011;51663;52.310;17.016;2022-07-29T04:55:21;5.97;;;3.58;;
65071;SDS011;51663;52.310;17.016;2022-07-29T04:58:23;13.60;;;2.95;;
65071;SDS011;51663;52.310;17.016;2022-07-29T05:01:25;8.20;;;3.58;;
65071;SDS011;51663;52.310;17.016;2022-07-29T05:04:28;6.90;;;3.10;;
65071;SDS011;51663;52.310;17.016;2022-07-29T05:07:30;7.22;;;3.30;;
65071;SDS011;51663;52.310;17.016;2022-07-29T05:10:32;6.72;;;2.97;;
65071;SDS011;51663;52.310;17.016;2022-07-29T05:13:37;5.95;;;2.97;;
65071;SDS011;51663;52.310;17.016;2022-07-29T05:16:46;8.07;;;3.45;;
65071;SDS011;51663;52.310;17.016;2022-07-29T05:19:48;5.05;;;2.67;;
65071;SDS011;51663;52.310;17.016;2022-07-29T05:22:52;3.97;;;3.10;;
65071;SDS011;51663;52.310;17.016;2022-07-29T05:25:54;7.43;;;3.15;;
65071;SDS011;51663;52.310;17.016;2022-07-29T05:28:56;5.50;;;2.88;;
65071;SDS011;51663;52.310;17.016;2022-07-29T05:31:58;6.07;;;3.15;;
65071;SDS011;51663;52.310;17.016;2022-07-29T05:35:01;12.55;;;2.95;;
65071;SDS011;51663;52.310;17.016;2022-07-29T05:38:03;5.80;;;2.97;;
65071;SDS011;51663;52.310;17.016;2022-07-29T05:41:05;5.38;;;3.20;;
65071;SDS011;51663;52.310;17.016;2022-07-29T05:44:08;8.55;;;3.05;;
65071;SDS011;51663;52.310;17.016;2022-07-29T05:47:10;3.03;;;2.47;;
65071;SDS011;51663;52.310;17.016;2022-07-29T05:50:12;8.63;;;2.88;;
65071;SDS011;51663;52.310;17.016;2022-07-29T05:53:15;5.07;;;2.83;;
65071;SDS011;51663;52.310;17.016;2022-07-29T05:56:20;5.45;;;2.53;;
65071;SDS011;51663;52.310;17.016;2022-07-29T05:59:22;5.35;;;2.97;;
65071;SDS011;51663;52.310;17.016;2022-07-29T06:02:30;6.95;;;2.70;;
65071;SDS011;51663;52.310;17.016;2022-07-29T06:05:32;5.72;;;2.78;;
65071;SDS011;51663;52.310;17.016;2022-07-29T06:08:35;9.15;;;3.40;;
65071;SDS011;51663;52.310;17.016;2022-07-29T06:11:37;7.43;;;3.40;;
65071;SDS011;51663;52.310;17.016;2022-07-29T06:14:39;13.00;;;3.85;;
65071;SDS011;51663;52.310;17.016;2022-07-29T06:17:41;5.72;;;2.83;;
65071;SDS011;51663;52.310;17.016;2022-07-29T06:21:01;35.08;;;10.70;;
65071;SDS011;51663;52.310;17.016;2022-07-29T06:24:08;3.95;;;2.83;;
65071;SDS011;51663;52.310;17.016;2022-07-29T06:27:11;3.35;;;2.80;;
65071;SDS011;51663;52.310;17.016;2022-07-29T06:30:14;3.42;;;2.70;;
65071;SDS011;51663;52.310;17.016;2022-07-29T06:33:16;2.85;;;2.55;;
65071;SDS011;51663;52.310;17.016;2022-07-29T06:36:20;5.13;;;2.30;;
65071;SDS011;51663;52.310;17.016;2022-07-29T06:39:25;5.13;;;2.60;;
65071;SDS011;51663;52.310;17.016;2022-07-29T06:42:27;2.75;;;2.28;;
65071;SDS011;51663;52.310;17.016;2022-07-29T06:45:29;9.73;;;2.83;;
65071;SDS011;51663;52.310;17.016;2022-07-29T06:48:31;5.47;;;2.38;;
65071;SDS011;51663;52.310;17.016;2022-07-29T06:51:34;5.40;;;2.53;;
65071;SDS011;51663;52.310;17.016;2022-07-29T06:54:36;5.28;;;2.47;;
65071;SDS011;51663;52.310;17.016;2022-07-29T06:57:39;6.45;;;2.55;;
65071;SDS011;51663;52.310;17.016;2022-07-29T07:00:42;8.48;;;2.63;;
65071;SDS011;51663;52.310;17.016;2022-07-29T07:03:45;8.35;;;2.53;;
65071;SDS011;51663;52.310;17.016;2022-07-29T07:06:47;5.97;;;2.65;;
65071;SDS011;51663;52.310;17.016;2022-07-29T07:09:49;5.03;;;2.58;;
65071;SDS011;51663;52.310;17.016;2022-07-29T07:12:51;4.00;;;2.10;;
65071;SDS011;51663;52.310;17.016;2022-07-29T07:15:53;4.43;;;2.47;;
65071;SDS011;51663;52.310;17.016;2022-07-29T07:18:55;4.43;;;2.35;;
65071;SDS011;51663;52.310;17.016;2022-07-29T07:21:57;25.85;;;4.40;;
65071;SDS011;51663;52.310;17.016;2022-07-29T07:25:02;5.22;;;1.95;;
65071;SDS011;51663;52.310;17.016;2022-07-29T07:28:04;15.57;;;3.25;;
65071;SDS011;51663;52.310;17.016;2022-07-29T07:31:06;10.48;;;2.78;;
65071;SDS011;51663;52.310;17.016;2022-07-29T07:34:08;6.05;;;2.40;;
65071;SDS011;51663;52.310;17.016;2022-07-29T07:37:10;9.00;;;2.38;;
65071;SDS011;51663;52.310;17.016;2022-07-29T07:40:13;2.22;;;2.00;;
65071;SDS011;51663;52.310;17.016;2022-07-29T07:43:19;6.65;;;2.28;;
65071;SDS011;51663;52.310;17.016;2022-07-29T07:46:21;10.35;;;2.50;;
65071;SDS011;51663;52.310;17.016;2022-07-29T07:49:23;3.85;;;1.67;;
65071;SDS011;51663;52.310;17.016;2022-07-29T07:52:28;8.88;;;2.35;;
65071;SDS011;51663;52.310;17.016;2022-07-29T07:55:30;4.63;;;2.20;;
65071;SDS011;51663;52.310;17.016;2022-07-29T07:58:53;4.00;;;1.60;;
65071;SDS011;51663;52.310;17.016;2022-07-29T08:01:55;7.40;;;1.92;;
65071;SDS011;51663;52.310;17.016;2022-07-29T08:04:57;3.92;;;2.08;;
65071;SDS011;51663;52.310;17.016;2022-07-29T08:08:00;3.67;;;1.83;;
65071;SDS011;51663;52.310;17.016;2022-07-29T08:11:02;3.08;;;2.08;;
65071;SDS011;51663;52.310;17.016;2022-07-29T08:14:10;4.38;;;1.98;;
65071;SDS011;51663;52.310;17.016;2022-07-29T08:17:14;6.32;;;2.30;;
65071;SDS011;51663;52.310;17.016;2022-07-29T08:20:16;4.20;;;1.85;;
65071;SDS011;51663;52.310;17.016;2022-07-29T08:23:18;3.95;;;2.17;;
65071;SDS011;51663;52.310;17.016;2022-07-29T08:26:20;4.40;;;2.15;;
65071;SDS011;51663;52.310;17.016;2022-07-29T08:29:23;6.03;;;1.70;;
65071;SDS011;51663;52.310;17.016;2022-07-29T08:32:26;4.18;;;2.25;;
65071;SDS011;51663;52.310;17.016;2022-07-29T08:35:49;5.55;;;2.38;;
65071;SDS011;51663;52.310;17.016;2022-07-29T08:38:52;5.50;;;2.25;;
65071;SDS011;51663;52.310;17.016;2022-07-29T08:41:54;3.30;;;2.20;;
65071;SDS011;51663;52.310;17.016;2022-07-29T08:44:58;4.00;;;1.40;;
65071;SDS011;51663;52.310;17.016;2022-07-29T08:48:00;8.68;;;2.13;;
65071;SDS011;51663;52.310;17.016;2022-07-29T08:51:02;6.70;;;2.72;;
65071;SDS011;51663;52.310;17.016;2022-07-29T08:54:07;2.92;;;1.98;;
65071;SDS011;51663;52.310;17.016;2022-07-29T08:57:12;4.95;;;2.10;;
65071;SDS011;51663;52.310;17.016;2022-07-29T09:00:16;7.00;;;2.55;;
65071;SDS011;51663;52.310;17.016;2022-07-29T09:03:20;1.60;;;1.50;;
65071;SDS011;51663;52.310;17.016;2022-07-29T09:06:25;15.50;;;2.60;;
65071;SDS011;51663;52.310;17.016;2022-07-29T09:09:33;3.17;;;1.75;;
65071;SDS011;51663;52.310;17.016;2022-07-29T09:12:35;16.60;;;2.50;;
65071;SDS011;51663;52.310;17.016;2022-07-29T09:15:38;8.15;;;1.77;;
65071;SDS011;51663;52.310;17.016;2022-07-29T09:18:42;7.97;;;2.20;;
65071;SDS011;51663;52.310;17.016;2022-07-29T09:21:45;3.58;;;2.10;;
65071;SDS011;51663;52.310;17.016;2022-07-29T09:24:59;3.70;;;1.88;;
65071;SDS011;51663;52.310;17.016;2022-07-29T09:28:11;3.22;;;1.63;;
65071;SDS011;51663;52.310;17.016;2022-07-29T09:31:15;3.80;;;1.67;;
65071;SDS011;51663;52.310;17.016;2022-07-29T09:34:27;4.20;;;1.60;;
65071;SDS011;51663;52.310;17.016;2022-07-29T09:37:31;6.60;;;1.85;;
65071;SDS011;51663;52.310;17.016;2022-07-29T09:40:34;3.15;;;1.90;;
65071;SDS011;51663;52.310;17.016;2022-07-29T09:43:36;6.65;;;1.83;;
65071;SDS011;51663;52.310;17.016;2022-07-29T09:46:38;10.05;;;2.00;;
65071;SDS011;51663;52.310;17.016;2022-07-29T09:52:56;6.78;;;2.03;;
65071;SDS011;51663;52.310;17.016;2022-07-29T09:55:58;3.92;;;1.85;;
65071;SDS011;51663;52.310;17.016;2022-07-29T09:59:07;3.10;;;1.98;;
65071;SDS011;51663;52.310;17.016;2022-07-29T10:02:13;4.60;;;2.15;;
65071;SDS011;51663;52.310;17.016;2022-07-29T10:05:24;4.90;;;1.60;;
65071;SDS011;51663;52.310;17.016;2022-07-29T10:08:40;4.38;;;1.48;;
65071;SDS011;51663;52.310;17.016;2022-07-29T10:11:43;3.10;;;1.65;;
65071;SDS011;51663;52.310;17.016;2022-07-29T10:15:07;1.85;;;1.50;;
65071;SDS011;51663;52.310;17.016;2022-07-29T10:18:10;5.82;;;2.03;;
65071;SDS011;51663;52.310;17.016;2022-07-29T10:21:13;3.72;;;1.70;;
65071;SDS011;51663;52.310;17.016;2022-07-29T10:24:36;4.53;;;2.42;;
65071;SDS011;51663;52.310;17.016;2022-07-29T10:27:39;5.10;;;1.70;;
65071;SDS011;51663;52.310;17.016;2022-07-29T10:30:41;8.00;;;2.28;;
65071;SDS011;51663;52.310;17.016;2022-07-29T10:40:42;16.00;;;3.17;;
65071;SDS011;51663;52.310;17.016;2022-07-29T10:44:12;5.85;;;2.03;;
65071;SDS011;51663;52.310;17.016;2022-07-29T10:47:24;3.33;;;1.80;;
65071;SDS011;51663;52.310;17.016;2022-07-29T10:50:27;12.45;;;2.13;;
65071;SDS011;51663;52.310;17.016;2022-07-29T11:00:42;5.53;;;1.73;;
65071;SDS011;51663;52.310;17.016;2022-07-29T11:03:46;4.03;;;1.63;;
65071;SDS011;51663;52.310;17.016;2022-07-29T11:17:03;3.03;;;1.90;;
65071;SDS011;51663;52.310;17.016;2022-07-29T11:23:43;6.68;;;1.98;;
65071;SDS011;51663;52.310;17.016;2022-07-29T11:27:04;5.03;;;2.13;;
65071;SDS011;51663;52.310;17.016;2022-07-29T11:30:20;3.78;;;1.80;;
65071;SDS011;51663;52.310;17.016;2022-07-29T11:33:31;5.53;;;2.28;;
65071;SDS011;51663;52.310;17.016;2022-07-29T11:40:15;2.92;;;1.90;;
65071;SDS011;51663;52.310;17.016;2022-07-29T11:43:45;3.13;;;1.80;;
65071;SDS011;51663;52.310;17.016;2022-07-29T11:46:52;2.97;;;1.90;;
65071;SDS011;51663;52.310;17.016;2022-07-29T11:49:55;2.05;;;1.67;;
65071;SDS011;51663;52.310;17.016;2022-07-29T11:53:00;3.47;;;2.13;;
65071;SDS011;51663;52.310;17.016;2022-07-29T11:56:09;4.18;;;1.90;;
65071;SDS011;51663;52.310;17.016;2022-07-29T11:59:39;2.17;;;1.75;;
65071;SDS011;51663;52.310;17.016;2022-07-29T12:02:44;3.30;;;1.80;;
65071;SDS011;51663;52.310;17.016;2022-07-29T12:05:49;3.10;;;2.10;;
65071;SDS011;51663;52.310;17.016;2022-07-29T12:08:52;5.07;;;2.10;;
65071;SDS011;51663;52.310;17.016;2022-07-29T12:11:58;2.83;;;1.95;;
65071;SDS011;51663;52.310;17.016;2022-07-29T12:15:13;3.03;;;2.05;;
65071;SDS011;51663;52.310;17.016;2022-07-29T12:18:17;11.15;;;2.53;;
65071;SDS011;51663;52.310;17.016;2022-07-29T12:21:25;5.35;;;2.30;;
65071;SDS011;51663;52.310;17.016;2022-07-29T12:24:42;3.97;;;1.88;;
65071;SDS011;51663;52.310;17.016;2022-07-29T12:27:45;4.45;;;2.30;;
65071;SDS011;51663;52.310;17.016;2022-07-29T12:30:49;5.78;;;2.42;;
65071;SDS011;51663;52.310;17.016;2022-07-29T12:33:52;3.95;;;1.70;;
65071;SDS011;51663;52.310;17.016;2022-07-29T12:36:57;4.60;;;2.40;;
65071;SDS011;51663;52.310;17.016;2022-07-29T12:39:59;4.22;;;2.08;;
65071;SDS011;51663;52.310;17.016;2022-07-29T12:43:06;2.88;;;1.83;;
65071;SDS011;51663;52.310;17.016;2022-07-29T12:46:12;3.30;;;2.42;;
65071;SDS011;51663;52.310;17.016;2022-07-29T12:49:21;6.38;;;2.20;;
65071;SDS011;51663;52.310;17.016;2022-07-29T12:52:25;4.38;;;2.00;;
65071;SDS011;51663;52.310;17.016;2022-07-29T12:55:41;5.43;;;1.90;;
65071;SDS011;51663;52.310;17.016;2022-07-29T12:58:46;2.42;;;1.98;;
65071;SDS011;51663;52.310;17.016;2022-07-29T13:01:52;5.40;;;2.33;;
65071;SDS011;51663;52.310;17.016;2022-07-29T13:04:57;2.95;;;2.22;;
65071;SDS011;51663;52.310;17.016;2022-07-29T13:08:11;3.28;;;2.08;;
65071;SDS011;51663;52.310;17.016;2022-07-29T13:11:32;4.95;;;1.90;;
65071;SDS011;51663;52.310;17.016;2022-07-29T13:14:43;8.00;;;2.30;;
65071;SDS011;51663;52.310;17.016;2022-07-29T13:17:49;4.07;;;1.92;;
65071;SDS011;51663;52.310;17.016;2022-07-29T13:20:52;3.03;;;2.28;;
65071;SDS011;51663;52.310;17.016;2022-07-29T13:23:55;3.47;;;2.13;;
65071;SDS011;51663;52.310;17.016;2022-07-29T13:26:57;3.20;;;1.88;;
65071;SDS011;51663;52.310;17.016;2022-07-29T13:30:00;6.40;;;2.42;;
65071;SDS011;51663;52.310;17.016;2022-07-29T13:33:03;5.65;;;2.10;;
65071;SDS011;51663;52.310;17.016;2022-07-29T13:36:05;4.35;;;2.10;;
65071;SDS011;51663;52.310;17.016;2022-07-29T13:39:08;14.50;;;2.95;;
65071;SDS011;51663;52.310;17.016;2022-07-29T13:42:10;3.28;;;2.00;;
65071;SDS011;51663;52.310;17.016;2022-07-29T13:45:14;5.90;;;1.80;;
65071;SDS011;51663;52.310;17.016;2022-07-29T13:48:16;2.50;;;1.90;;
65071;SDS011;51663;52.310;17.016;2022-07-29T13:51:19;6.38;;;2.42;;
65071;SDS011;51663;52.310;17.016;2022-07-29T13:54:21;8.27;;;2.60;;
65071;SDS011;51663;52.310;17.016;2022-07-29T13:57:23;22.55;;;4.18;;
65071;SDS011;51663;52.310;17.016;2022-07-29T14:00:25;14.60;;;3.40;;
65071;SDS011;51663;52.310;17.016;2022-07-29T14:03:28;5.75;;;2.25;;
65071;SDS011;51663;52.310;17.016;2022-07-29T14:06:29;2.85;;;2.22;;
65071;SDS011;51663;52.310;17.016;2022-07-29T14:09:32;5.28;;;1.98;;
65071;SDS011;51663;52.310;17.016;2022-07-29T14:12:42;2.80;;;2.40;;
65071;SDS011;51663;52.310;17.016;2022-07-29T14:15:45;8.30;;;2.10;;
65071;SDS011;51663;52.310;17.016;2022-07-29T14:18:47;7.35;;;2.33;;
65071;SDS011;51663;52.310;17.016;2022-07-29T14:21:49;4.18;;;2.10;;
65071;SDS011;51663;52.310;17.016;2022-07-29T14:24:51;2.13;;;1.92;;
65071;SDS011;51663;52.310;17.016;2022-07-29T14:27:54;8.70;;;2.13;;
65071;SDS011;51663;52.310;17.016;2022-07-29T14:30:58;2.97;;;2.42;;
65071;SDS011;51663;52.310;17.016;2022-07-29T14:34:01;3.45;;;2.25;;
65071;SDS011;51663;52.310;17.016;2022-07-29T14:37:03;4.25;;;2.30;;
65071;SDS011;51663;52.310;17.016;2022-07-29T14:40:08;2.03;;;1.83;;
65071;SDS011;51663;52.310;17.016;2022-07-29T14:43:10;6.00;;;2.33;;
65071;SDS011;51663;52.310;17.016;2022-07-29T14:46:13;10.55;;;2.55;;
65071;SDS011;51663;52.310;17.016;2022-07-29T14:49:15;6.40;;;1.92;;
65071;SDS011;51663;52.310;17.016;2022-07-29T14:52:17;2.63;;;1.88;;
65071;SDS011;51663;52.310;17.016;2022-07-29T14:55:19;10.45;;;2.65;;
65071;SDS011;51663;52.310;17.016;2022-07-29T14:58:21;5.15;;;2.38;;
65071;SDS011;51663;52.310;17.016;2022-07-29T15:01:24;5.97;;;1.90;;
65071;SDS011;51663;52.310;17.016;2022-07-29T15:04:26;3.92;;;1.90;;
65071;SDS011;51663;52.310;17.016;2022-07-29T15:07:28;7.28;;;1.85;;
65071;SDS011;51663;52.310;17.016;2022-07-29T15:10:31;2.60;;;1.70;;
65071;SDS011;51663;52.310;17.016;2022-07-29T15:13:35;4.00;;;1.80;;
65071;SDS011;51663;52.310;17.016;2022-07-29T15:16:38;5.45;;;1.70;;
65071;SDS011;51663;52.310;17.016;2022-07-29T15:19:48;4.95;;;1.60;;
65071;SDS011;51663;52.310;17.016;2022-07-29T15:22:50;1.60;;;1.50;;
65071;SDS011;51663;52.310;17.016;2022-07-29T15:25:52;2.53;;;1.67;;
65071;SDS011;51663;52.310;17.016;2022-07-29T15:28:54;13.52;;;3.08;;
65071;SDS011;51663;52.310;17.016;2022-07-29T15:31:57;3.63;;;2.20;;
65071;SDS011;51663;52.310;17.016;2022-07-29T15:34:59;9.52;;;2.58;;
65071;SDS011;51663;52.310;17.016;2022-07-29T15:38:02;7.07;;;1.75;;
65071;SDS011;51663;52.310;17.016;2022-07-29T15:41:04;17.83;;;2.88;;
65071;SDS011;51663;52.310;17.016;2022-07-29T15:44:06;4.65;;;1.90;;
65071;SDS011;51663;52.310;17.016;2022-07-29T15:47:08;2.85;;;1.65;;
65071;SDS011;51663;52.310;17.016;2022-07-29T15:50:10;7.05;;;4.38;;
65071;SDS011;51663;52.310;17.016;2022-07-29T15:53:17;3.70;;;1.73;;
65071;SDS011;51663;52.310;17.016;2022-07-29T15:56:19;3.35;;;1.70;;
65071;SDS011;51663;52.310;17.016;2022-07-29T15:59:22;4.07;;;1.77;;
65071;SDS011;51663;52.310;17.016;2022-07-29T16:02:24;4.32;;;2.28;;
65071;SDS011;51663;52.310;17.016;2022-07-29T16:05:26;3.97;;;1.70;;
65071;SDS011;51663;52.310;17.016;2022-07-29T16:08:30;6.63;;;1.77;;
65071;SDS011;51663;52.310;17.016;2022-07-29T16:11:32;6.75;;;1.90;;
65071;SDS011;51663;52.310;17.016;2022-07-29T16:14:34;3.38;;;1.65;;
65071;SDS011;51663;52.310;17.016;2022-07-29T16:17:38;5.38;;;1.80;;
65071;SDS011;51663;52.310;17.016;2022-07-29T16:20:40;3.00;;;2.50;;
65071;SDS011;51663;52.310;17.016;2022-07-29T16:23:43;4.78;;;1.80;;
65071;SDS011;51663;52.310;17.016;2022-07-29T16:26:45;5.10;;;1.98;;
65071;SDS011;51663;52.310;17.016;2022-07-29T16:29:48;10.65;;;2.40;;
65071;SDS011;51663;52.310;17.016;2022-07-29T16:32:50;10.93;;;3.20;;
65071;SDS011;51663;52.310;17.016;2022-07-29T16:35:53;5.82;;;2.28;;
65071;SDS011;51663;52.310;17.016;2022-07-29T16:38:55;6.30;;;1.60;;
65071;SDS011;51663;52.310;17.016;2022-07-29T16:41:57;6.35;;;1.70;;
65071;SDS011;51663;52.310;17.016;2022-07-29T16:45:03;5.82;;;1.50;;
65071;SDS011;51663;52.310;17.016;2022-07-29T16:48:06;6.68;;;1.65;;
65071;SDS011;51663;52.310;17.016;2022-07-29T16:51:08;1.50;;;1.40;;
65071;SDS011;51663;52.310;17.016;2022-07-29T16:54:14;1.90;;;1.30;;
65071;SDS011;51663;52.310;17.016;2022-07-29T16:57:17;3.00;;;1.75;;
65071;SDS011;51663;52.310;17.016;2022-07-29T17:00:19;4.03;;;1.58;;
65071;SDS011;51663;52.310;17.016;2022-07-29T17:03:22;2.60;;;1.40;;
65071;SDS011;51663;52.310;17.016;2022-07-29T17:06:24;2.80;;;1.77;;
65071;SDS011;51663;52.310;17.016;2022-07-29T17:09:26;2.63;;;1.33;;
65071;SDS011;51663;52.310;17.016;2022-07-29T17:12:29;3.85;;;2.10;;
65071;SDS011;51663;52.310;17.016;2022-07-29T17:15:32;3.90;;;1.50;;
65071;SDS011;51663;52.310;17.016;2022-07-29T17:18:37;2.03;;;1.38;;
65071;SDS011;51663;52.310;17.016;2022-07-29T17:21:39;3.20;;;1.50;;
65071;SDS011;51663;52.310;17.016;2022-07-29T17:24:49;5.95;;;1.75;;
65071;SDS011;51663;52.310;17.016;2022-07-29T17:27:52;4.13;;;1.88;;
65071;SDS011;51663;52.310;17.016;2022-07-29T17:31:01;3.10;;;1.50;;
65071;SDS011;51663;52.310;17.016;2022-07-29T17:34:03;2.78;;;1.67;;
65071;SDS011;51663;52.310;17.016;2022-07-29T17:37:07;3.85;;;1.48;;
65071;SDS011;51663;52.310;17.016;2022-07-29T17:40:11;2.65;;;1.88;;
65071;SDS011;51663;52.310;17.016;2022-07-29T17:43:13;5.40;;;1.70;;
65071;SDS011;51663;52.310;17.016;2022-07-29T17:46:15;5.13;;;2.00;;
65071;SDS011;51663;52.310;17.016;2022-07-29T17:49:19;4.07;;;1.63;;
65071;SDS011;51663;52.310;17.016;2022-07-29T17:52:21;4.45;;;1.90;;
65071;SDS011;51663;52.310;17.016;2022-07-29T17:55:23;6.45;;;1.67;;
65071;SDS011;51663;52.310;17.016;2022-07-29T17:58:25;4.28;;;1.77;;
65071;SDS011;51663;52.310;17.016;2022-07-29T18:01:27;6.15;;;1.90;;
65071;SDS011;51663;52.310;17.016;2022-07-29T18:04:29;4.30;;;1.80;;
65071;SDS011;51663;52.310;17.016;2022-07-29T18:07:32;3.85;;;1.60;;
65071;SDS011;51663;52.310;17.016;2022-07-29T18:10:36;2.75;;;1.88;;
65071;SDS011;51663;52.310;17.016;2022-07-29T18:13:39;3.60;;;2.15;;
65071;SDS011;51663;52.310;17.016;2022-07-29T18:16:41;6.28;;;2.38;;
65071;SDS011;51663;52.310;17.016;2022-07-29T18:19:44;3.08;;;2.17;;
65071;SDS011;51663;52.310;17.016;2022-07-29T18:22:46;3.80;;;1.67;;
65071;SDS011;51663;52.310;17.016;2022-07-29T18:25:48;3.53;;;1.45;;
65071;SDS011;51663;52.310;17.016;2022-07-29T18:28:50;39.95;;;4.82;;
65071;SDS011;51663;52.310;17.016;2022-07-29T18:31:53;4.63;;;2.50;;
65071;SDS011;51663;52.310;17.016;2022-07-29T18:34:55;3.78;;;2.30;;
65071;SDS011;51663;52.310;17.016;2022-07-29T18:37:57;3.97;;;1.75;;
65071;SDS011;51663;52.310;17.016;2022-07-29T18:41:03;2.38;;;1.90;;
65071;SDS011;51663;52.310;17.016;2022-07-29T18:44:05;6.07;;;2.17;;
65071;SDS011;51663;52.310;17.016;2022-07-29T18:47:07;3.97;;;3.28;;
65071;SDS011;51663;52.310;17.016;2022-07-29T18:50:12;3.50;;;1.92;;
65071;SDS011;51663;52.310;17.016;2022-07-29T18:53:15;11.32;;;2.28;;
65071;SDS011;51663;52.310;17.016;2022-07-29T18:56:17;3.17;;;1.60;;
65071;SDS011;51663;52.310;17.016;2022-07-29T18:59:19;4.85;;;1.60;;